sensor_id;sensor_type;location;lat;lon;timestamp;P1;durP1;ratioP1;P2;durP2;ratioP2
19671;SDS011;9983;51.114;13.788;2023-06-19T00:00:13;10.93;;;9.93;;
19671;SDS011;9983;51.114;13.788;2023-06-19T00:05:15;11.55;;;10.43;;
19671;SDS011;9983;51.114;13.788;2023-06-19T00:10:15;11.23;;;10.13;;
19671;SDS011;9983;51.114;13.788;2023-06-19T00:15:16;11.30;;;10.23;;
19671;SDS011;9983;51.114;13.788;2023-06-19T00:20:16;11.23;;;10.23;;
19671;SDS011;9983;51.114;13.788;2023-06-19T00:25:18;10.95;;;9.95;;
19671;SDS011;9983;51.114;13.788;2023-06-19T00:30:19;11.65;;;10.45;;
19671;SDS011;9983;51.114;13.788;2023-06-19T00:35:20;11.77;;;10.68;;
19671;SDS011;9983;51.114;13.788;2023-06-19T00:40:31;11.95;;;10.90;;
19671;SDS011;9983;51.114;13.788;2023-06-19T00:45:32;10.88;;;9.88;;
19671;SDS011;9983;51.114;13.788;2023-06-19T00:50:33;11.63;;;10.60;;
19671;SDS011;9983;51.114;13.788;2023-06-19T00:55:33;12.00;;;10.90;;
19671;SDS011;9983;51.114;13.788;2023-06-19T01:00:33;11.43;;;10.25;;
19671;SDS011;9983;51.114;13.788;2023-06-19T01:05:34;11.68;;;10.57;;
19671;SDS011;9983;51.114;13.788;2023-06-19T01:10:36;11.38;;;10.38;;
19671;SDS011;9983;51.114;13.788;2023-06-19T01:15:40;11.20;;;10.20;;
19671;SDS011;9983;51.114;13.788;2023-06-19T01:20:42;11.20;;;10.20;;
19671;SDS011;9983;51.114;13.788;2023-06-19T01:25:42;12.00;;;10.80;;
19671;SDS011;9983;51.114;13.788;2023-06-19T01:30:42;11.05;;;10.15;;
19671;SDS011;9983;51.114;13.788;2023-06-19T01:35:43;11.30;;;10.30;;
19671;SDS011;9983;51.114;13.788;2023-06-19T01:40:45;11.35;;;10.25;;
19671;SDS011;9983;51.114;13.788;2023-06-19T01:45:46;11.90;;;10.77;;
19671;SDS011;9983;51.114;13.788;2023-06-19T01:50:47;10.88;;;9.88;;
19671;SDS011;9983;51.114;13.788;2023-06-19T01:55:48;11.18;;;10.18;;
19671;SDS011;9983;51.114;13.788;2023-06-19T02:00:48;11.63;;;10.60;;
19671;SDS011;9983;51.114;13.788;2023-06-19T02:05:48;11.15;;;10.15;;
19671;SDS011;9983;51.114;13.788;2023-06-19T02:10:49;11.43;;;10.32;;
19671;SDS011;9983;51.114;13.788;2023-06-19T02:15:49;10.32;;;9.43;;
19671;SDS011;9983;51.114;13.788;2023-06-19T02:20:49;11.05;;;10.00;;
19671;SDS011;9983;51.114;13.788;2023-06-19T02:25:49;11.50;;;10.40;;
19671;SDS011;9983;51.114;13.788;2023-06-19T02:30:50;11.82;;;10.63;;
19671;SDS011;9983;51.114;13.788;2023-06-19T02:35:52;11.18;;;10.18;;
19671;SDS011;9983;51.114;13.788;2023-06-19T02:40:52;10.88;;;9.88;;
19671;SDS011;9983;51.114;13.788;2023-06-19T02:45:52;10.95;;;10.00;;
19671;SDS011;9983;51.114;13.788;2023-06-19T02:50:52;10.77;;;9.77;;
19671;SDS011;9983;51.114;13.788;2023-06-19T02:55:53;12.30;;;10.82;;
19671;SDS011;9983;51.114;13.788;2023-06-19T03:00:53;11.03;;;10.03;;
19671;SDS011;9983;51.114;13.788;2023-06-19T03:05:53;11.20;;;10.23;;
19671;SDS011;9983;51.114;13.788;2023-06-19T03:10:54;11.80;;;10.38;;
19671;SDS011;9983;51.114;13.788;2023-06-19T03:15:54;12.00;;;10.90;;
19671;SDS011;9983;51.114;13.788;2023-06-19T03:20:54;12.00;;;10.85;;
19671;SDS011;9983;51.114;13.788;2023-06-19T03:25:54;11.82;;;10.63;;
19671;SDS011;9983;51.114;13.788;2023-06-19T03:30:55;11.70;;;10.50;;
19671;SDS011;9983;51.114;13.788;2023-06-19T03:35:55;11.70;;;10.63;;
19671;SDS011;9983;51.114;13.788;2023-06-19T03:40:55;10.57;;;9.57;;
19671;SDS011;9983;51.114;13.788;2023-06-19T03:45:56;10.10;;;9.30;;
19671;SDS011;9983;51.114;13.788;2023-06-19T03:50:56;10.57;;;9.68;;
19671;SDS011;9983;51.114;13.788;2023-06-19T03:55:56;10.65;;;9.68;;
19671;SDS011;9983;51.114;13.788;2023-06-19T04:00:56;11.13;;;10.10;;
19671;SDS011;9983;51.114;13.788;2023-06-19T04:05:57;11.98;;;10.63;;
19671;SDS011;9983;51.114;13.788;2023-06-19T04:10:57;11.25;;;10.25;;
19671;SDS011;9983;51.114;13.788;2023-06-19T04:15:57;11.10;;;10.10;;
19671;SDS011;9983;51.114;13.788;2023-06-19T04:20:57;11.20;;;10.20;;
19671;SDS011;9983;51.114;13.788;2023-06-19T04:25:58;10.60;;;9.60;;
19671;SDS011;9983;51.114;13.788;2023-06-19T04:30:58;10.70;;;9.80;;
19671;SDS011;9983;51.114;13.788;2023-06-19T04:36:01;11.32;;;10.13;;
19671;SDS011;9983;51.114;13.788;2023-06-19T04:41:01;10.52;;;9.55;;
19671;SDS011;9983;51.114;13.788;2023-06-19T04:46:02;10.00;;;9.10;;
19671;SDS011;9983;51.114;13.788;2023-06-19T04:51:03;10.65;;;9.75;;
19671;SDS011;9983;51.114;13.788;2023-06-19T04:56:04;9.70;;;8.70;;
19671;SDS011;9983;51.114;13.788;2023-06-19T05:01:04;9.20;;;8.45;;
19671;SDS011;9983;51.114;13.788;2023-06-19T05:06:04;9.02;;;8.23;;
19671;SDS011;9983;51.114;13.788;2023-06-19T05:11:04;9.95;;;9.00;;
19671;SDS011;9983;51.114;13.788;2023-06-19T05:16:05;10.45;;;9.35;;
19671;SDS011;9983;51.114;13.788;2023-06-19T05:21:05;9.88;;;8.98;;
19671;SDS011;9983;51.114;13.788;2023-06-19T05:26:05;10.63;;;9.63;;
19671;SDS011;9983;51.114;13.788;2023-06-19T05:31:06;9.27;;;8.43;;
19671;SDS011;9983;51.114;13.788;2023-06-19T05:36:06;10.07;;;9.25;;
19671;SDS011;9983;51.114;13.788;2023-06-19T05:41:06;11.17;;;10.17;;
19671;SDS011;9983;51.114;13.788;2023-06-19T05:46:07;11.15;;;10.07;;
19671;SDS011;9983;51.114;13.788;2023-06-19T05:51:07;10.98;;;9.98;;
19671;SDS011;9983;51.114;13.788;2023-06-19T05:56:07;10.95;;;9.90;;
19671;SDS011;9983;51.114;13.788;2023-06-19T06:01:07;11.00;;;10.07;;
19671;SDS011;9983;51.114;13.788;2023-06-19T06:06:08;9.75;;;8.95;;
19671;SDS011;9983;51.114;13.788;2023-06-19T06:11:08;9.88;;;8.98;;
19671;SDS011;9983;51.114;13.788;2023-06-19T06:16:08;9.52;;;8.55;;
19671;SDS011;9983;51.114;13.788;2023-06-19T06:21:08;10.52;;;9.48;;
19671;SDS011;9983;51.114;13.788;2023-06-19T06:26:09;9.87;;;9.07;;
19671;SDS011;9983;51.114;13.788;2023-06-19T06:31:09;9.40;;;8.60;;
19671;SDS011;9983;51.114;13.788;2023-06-19T06:36:09;9.13;;;8.32;;
19671;SDS011;9983;51.114;13.788;2023-06-19T06:41:10;9.93;;;9.13;;
19671;SDS011;9983;51.114;13.788;2023-06-19T06:46:10;10.25;;;9.45;;
19671;SDS011;9983;51.114;13.788;2023-06-19T06:51:10;10.10;;;9.23;;
19671;SDS011;9983;51.114;13.788;2023-06-19T06:56:10;10.40;;;9.60;;
19671;SDS011;9983;51.114;13.788;2023-06-19T07:01:11;11.07;;;10.07;;
19671;SDS011;9983;51.114;13.788;2023-06-19T07:06:11;9.73;;;9.02;;
19671;SDS011;9983;51.114;13.788;2023-06-19T07:11:11;9.73;;;8.82;;
19671;SDS011;9983;51.114;13.788;2023-06-19T07:16:12;9.73;;;8.80;;
19671;SDS011;9983;51.114;13.788;2023-06-19T07:21:12;9.73;;;8.93;;
19671;SDS011;9983;51.114;13.788;2023-06-19T07:26:14;9.57;;;8.73;;
19671;SDS011;9983;51.114;13.788;2023-06-19T07:31:15;9.85;;;8.98;;
19671;SDS011;9983;51.114;13.788;2023-06-19T07:36:15;9.75;;;9.05;;
19671;SDS011;9983;51.114;13.788;2023-06-19T07:41:16;9.23;;;8.43;;
19671;SDS011;9983;51.114;13.788;2023-06-19T07:46:16;8.65;;;7.85;;
19671;SDS011;9983;51.114;13.788;2023-06-19T07:51:17;8.77;;;7.88;;
19671;SDS011;9983;51.114;13.788;2023-06-19T07:56:17;8.87;;;8.07;;
19671;SDS011;9983;51.114;13.788;2023-06-19T08:01:17;7.72;;;7.13;;
19671;SDS011;9983;51.114;13.788;2023-06-19T08:06:17;8.05;;;7.45;;
19671;SDS011;9983;51.114;13.788;2023-06-19T08:11:18;7.93;;;7.32;;
19671;SDS011;9983;51.114;13.788;2023-06-19T08:16:18;7.45;;;6.85;;
19671;SDS011;9983;51.114;13.788;2023-06-19T08:21:18;7.53;;;6.93;;
19671;SDS011;9983;51.114;13.788;2023-06-19T08:26:21;7.43;;;6.72;;
19671;SDS011;9983;51.114;13.788;2023-06-19T08:31:21;8.47;;;7.43;;
19671;SDS011;9983;51.114;13.788;2023-06-19T08:36:27;8.45;;;7.55;;
19671;SDS011;9983;51.114;13.788;2023-06-19T08:41:27;7.60;;;7.00;;
19671;SDS011;9983;51.114;13.788;2023-06-19T08:46:27;8.02;;;7.32;;
19671;SDS011;9983;51.114;13.788;2023-06-19T08:51:28;8.00;;;7.28;;
19671;SDS011;9983;51.114;13.788;2023-06-19T08:56:31;8.25;;;7.45;;
19671;SDS011;9983;51.114;13.788;2023-06-19T09:01:37;8.23;;;7.53;;
19671;SDS011;9983;51.114;13.788;2023-06-19T09:12:02;8.50;;;7.68;;
19671;SDS011;9983;51.114;13.788;2023-06-19T09:17:09;8.07;;;7.38;;
19671;SDS011;9983;51.114;13.788;2023-06-19T09:22:11;8.38;;;7.72;;
19671;SDS011;9983;51.114;13.788;2023-06-19T09:27:12;8.65;;;7.95;;
19671;SDS011;9983;51.114;13.788;2023-06-19T09:37:22;9.02;;;8.13;;
19671;SDS011;9983;51.114;13.788;2023-06-19T09:42:29;9.98;;;8.48;;
19671;SDS011;9983;51.114;13.788;2023-06-19T09:47:36;9.40;;;8.60;;
19671;SDS011;9983;51.114;13.788;2023-06-19T09:52:38;8.95;;;8.25;;
19671;SDS011;9983;51.114;13.788;2023-06-19T09:57:42;10.40;;;9.20;;
19671;SDS011;9983;51.114;13.788;2023-06-19T10:02:44;8.80;;;8.15;;
19671;SDS011;9983;51.114;13.788;2023-06-19T10:07:46;8.55;;;7.95;;
19671;SDS011;9983;51.114;13.788;2023-06-19T10:12:46;11.63;;;8.67;;
19671;SDS011;9983;51.114;13.788;2023-06-19T10:17:48;54.13;;;21.35;;
19671;SDS011;9983;51.114;13.788;2023-06-19T10:23:35;15.45;;;11.55;;
19671;SDS011;9983;51.114;13.788;2023-06-19T10:33:32;8.82;;;7.63;;
19671;SDS011;9983;51.114;13.788;2023-06-19T10:38:34;9.00;;;8.20;;
19671;SDS011;9983;51.114;13.788;2023-06-19T10:43:34;8.82;;;8.02;;
19671;SDS011;9983;51.114;13.788;2023-06-19T10:48:34;9.10;;;8.40;;
19671;SDS011;9983;51.114;13.788;2023-06-19T10:53:35;8.98;;;8.18;;
19671;SDS011;9983;51.114;13.788;2023-06-19T10:58:36;8.07;;;7.40;;
19671;SDS011;9983;51.114;13.788;2023-06-19T11:03:36;8.00;;;7.40;;
19671;SDS011;9983;51.114;13.788;2023-06-19T11:08:37;7.55;;;6.95;;
19671;SDS011;9983;51.114;13.788;2023-06-19T11:13:37;8.13;;;7.53;;
19671;SDS011;9983;51.114;13.788;2023-06-19T11:18:38;8.15;;;7.45;;
19671;SDS011;9983;51.114;13.788;2023-06-19T11:23:38;7.50;;;6.95;;
19671;SDS011;9983;51.114;13.788;2023-06-19T11:28:38;7.60;;;6.97;;
19671;SDS011;9983;51.114;13.788;2023-06-19T11:33:38;6.95;;;6.38;;
19671;SDS011;9983;51.114;13.788;2023-06-19T11:38:38;7.25;;;6.75;;
19671;SDS011;9983;51.114;13.788;2023-06-19T11:43:41;7.00;;;6.40;;
19671;SDS011;9983;51.114;13.788;2023-06-19T11:48:41;7.28;;;6.78;;
19671;SDS011;9983;51.114;13.788;2023-06-19T11:53:41;7.03;;;6.53;;
19671;SDS011;9983;51.114;13.788;2023-06-19T11:58:41;7.47;;;6.78;;
19671;SDS011;9983;51.114;13.788;2023-06-19T12:03:44;6.80;;;6.30;;
19671;SDS011;9983;51.114;13.788;2023-06-19T12:08:45;7.70;;;6.97;;
19671;SDS011;9983;51.114;13.788;2023-06-19T12:13:45;6.95;;;6.45;;
19671;SDS011;9983;51.114;13.788;2023-06-19T12:18:45;6.90;;;6.30;;
19671;SDS011;9983;51.114;13.788;2023-06-19T12:23:45;6.75;;;6.18;;
19671;SDS011;9983;51.114;13.788;2023-06-19T12:28:46;7.13;;;6.53;;
19671;SDS011;9983;51.114;13.788;2023-06-19T12:33:46;7.13;;;6.63;;
19671;SDS011;9983;51.114;13.788;2023-06-19T12:38:48;6.90;;;6.35;;
19671;SDS011;9983;51.114;13.788;2023-06-19T12:43:49;7.13;;;6.50;;
19671;SDS011;9983;51.114;13.788;2023-06-19T12:48:49;7.03;;;6.53;;
19671;SDS011;9983;51.114;13.788;2023-06-19T12:53:50;7.25;;;6.65;;
19671;SDS011;9983;51.114;13.788;2023-06-19T12:58:50;7.43;;;6.75;;
19671;SDS011;9983;51.114;13.788;2023-06-19T13:03:51;6.95;;;6.40;;
19671;SDS011;9983;51.114;13.788;2023-06-19T13:08:51;7.32;;;6.72;;
19671;SDS011;9983;51.114;13.788;2023-06-19T13:13:51;7.63;;;6.85;;
19671;SDS011;9983;51.114;13.788;2023-06-19T13:18:52;7.05;;;6.55;;
19671;SDS011;9983;51.114;13.788;2023-06-19T13:23:52;6.70;;;6.25;;
19671;SDS011;9983;51.114;13.788;2023-06-19T13:28:52;7.32;;;6.63;;
19671;SDS011;9983;51.114;13.788;2023-06-19T13:33:53;7.43;;;6.55;;
19671;SDS011;9983;51.114;13.788;2023-06-19T13:38:53;7.40;;;6.80;;
19671;SDS011;9983;51.114;13.788;2023-06-19T13:43:53;8.33;;;7.47;;
19671;SDS011;9983;51.114;13.788;2023-06-19T13:48:54;8.33;;;7.63;;
19671;SDS011;9983;51.114;13.788;2023-06-19T13:53:54;8.07;;;7.45;;
19671;SDS011;9983;51.114;13.788;2023-06-19T13:58:54;8.63;;;7.83;;
19671;SDS011;9983;51.114;13.788;2023-06-19T14:03:55;8.98;;;8.27;;
19671;SDS011;9983;51.114;13.788;2023-06-19T14:08:57;10.43;;;8.45;;
19671;SDS011;9983;51.114;13.788;2023-06-19T14:13:58;8.95;;;8.07;;
19671;SDS011;9983;51.114;13.788;2023-06-19T14:18:58;8.93;;;8.23;;
19671;SDS011;9983;51.114;13.788;2023-06-19T14:23:58;10.05;;;8.45;;
19671;SDS011;9983;51.114;13.788;2023-06-19T14:28:58;10.48;;;9.57;;
19671;SDS011;9983;51.114;13.788;2023-06-19T14:33:59;9.55;;;8.60;;
19671;SDS011;9983;51.114;13.788;2023-06-19T14:38:59;9.32;;;8.52;;
19671;SDS011;9983;51.114;13.788;2023-06-19T14:43:59;9.68;;;8.85;;
19671;SDS011;9983;51.114;13.788;2023-06-19T14:48:59;10.23;;;9.40;;
19671;SDS011;9983;51.114;13.788;2023-06-19T14:54:00;10.52;;;9.45;;
19671;SDS011;9983;51.114;13.788;2023-06-19T14:59:01;10.73;;;9.70;;
19671;SDS011;9983;51.114;13.788;2023-06-19T15:04:01;10.70;;;9.60;;
19671;SDS011;9983;51.114;13.788;2023-06-19T15:09:01;10.25;;;9.35;;
19671;SDS011;9983;51.114;13.788;2023-06-19T15:14:02;10.98;;;9.93;;
19671;SDS011;9983;51.114;13.788;2023-06-19T15:19:02;10.82;;;9.93;;
19671;SDS011;9983;51.114;13.788;2023-06-19T15:24:03;10.75;;;9.82;;
19671;SDS011;9983;51.114;13.788;2023-06-19T15:29:03;11.23;;;10.10;;
19671;SDS011;9983;51.114;13.788;2023-06-19T15:34:03;11.05;;;10.07;;
19671;SDS011;9983;51.114;13.788;2023-06-19T15:39:03;10.80;;;10.00;;
19671;SDS011;9983;51.114;13.788;2023-06-19T15:44:04;11.05;;;10.07;;
19671;SDS011;9983;51.114;13.788;2023-06-19T15:49:04;12.67;;;10.27;;
19671;SDS011;9983;51.114;13.788;2023-06-19T15:54:04;11.35;;;10.35;;
19671;SDS011;9983;51.114;13.788;2023-06-19T15:59:05;11.38;;;10.38;;
19671;SDS011;9983;51.114;13.788;2023-06-19T16:04:05;11.23;;;10.38;;
19671;SDS011;9983;51.114;13.788;2023-06-19T16:09:05;11.53;;;10.53;;
19671;SDS011;9983;51.114;13.788;2023-06-19T16:14:06;11.90;;;10.65;;
19671;SDS011;9983;51.114;13.788;2023-06-19T16:19:06;11.75;;;10.73;;
19671;SDS011;9983;51.114;13.788;2023-06-19T16:24:07;11.63;;;10.63;;
19671;SDS011;9983;51.114;13.788;2023-06-19T16:29:07;11.70;;;10.65;;
19671;SDS011;9983;51.114;13.788;2023-06-19T16:34:07;11.52;;;10.68;;
19671;SDS011;9983;51.114;13.788;2023-06-19T16:39:08;12.35;;;10.85;;
19671;SDS011;9983;51.114;13.788;2023-06-19T16:44:10;11.15;;;10.25;;
19671;SDS011;9983;51.114;13.788;2023-06-19T16:49:10;12.23;;;11.10;;
19671;SDS011;9983;51.114;13.788;2023-06-19T16:54:10;11.32;;;10.43;;
19671;SDS011;9983;51.114;13.788;2023-06-19T16:59:11;11.65;;;10.68;;
19671;SDS011;9983;51.114;13.788;2023-06-19T17:04:11;12.02;;;10.93;;
19671;SDS011;9983;51.114;13.788;2023-06-19T17:09:11;13.65;;;11.07;;
19671;SDS011;9983;51.114;13.788;2023-06-19T17:14:11;12.00;;;10.70;;
19671;SDS011;9983;51.114;13.788;2023-06-19T17:19:12;12.55;;;11.25;;
19671;SDS011;9983;51.114;13.788;2023-06-19T17:24:12;11.75;;;10.77;;
19671;SDS011;9983;51.114;13.788;2023-06-19T17:29:14;12.52;;;11.52;;
19671;SDS011;9983;51.114;13.788;2023-06-19T17:34:14;12.70;;;11.50;;
19671;SDS011;9983;51.114;13.788;2023-06-19T17:39:14;12.48;;;11.38;;
19671;SDS011;9983;51.114;13.788;2023-06-19T17:44:15;12.93;;;11.68;;
19671;SDS011;9983;51.114;13.788;2023-06-19T17:49:15;12.48;;;11.43;;
19671;SDS011;9983;51.114;13.788;2023-06-19T17:54:18;12.85;;;11.75;;
19671;SDS011;9983;51.114;13.788;2023-06-19T17:59:18;12.55;;;11.45;;
19671;SDS011;9983;51.114;13.788;2023-06-19T18:04:19;14.35;;;12.55;;
19671;SDS011;9983;51.114;13.788;2023-06-19T18:09:19;13.30;;;12.23;;
19671;SDS011;9983;51.114;13.788;2023-06-19T18:14:20;13.27;;;12.05;;
19671;SDS011;9983;51.114;13.788;2023-06-19T18:19:24;13.43;;;12.13;;
19671;SDS011;9983;51.114;13.788;2023-06-19T18:24:25;12.88;;;11.70;;
19671;SDS011;9983;51.114;13.788;2023-06-19T18:29:25;13.20;;;12.00;;
19671;SDS011;9983;51.114;13.788;2023-06-19T18:34:25;15.77;;;14.15;;
19671;SDS011;9983;51.114;13.788;2023-06-19T18:39:26;15.95;;;13.43;;
19671;SDS011;9983;51.114;13.788;2023-06-19T18:44:26;15.77;;;14.33;;
19671;SDS011;9983;51.114;13.788;2023-06-19T18:49:26;15.05;;;13.75;;
19671;SDS011;9983;51.114;13.788;2023-06-19T18:54:26;16.13;;;14.63;;
19671;SDS011;9983;51.114;13.788;2023-06-19T18:59:27;17.42;;;15.65;;
19671;SDS011;9983;51.114;13.788;2023-06-19T19:04:28;15.30;;;13.98;;
19671;SDS011;9983;51.114;13.788;2023-06-19T19:09:29;17.25;;;15.75;;
19671;SDS011;9983;51.114;13.788;2023-06-19T19:14:29;17.27;;;15.67;;
19671;SDS011;9983;51.114;13.788;2023-06-19T19:19:29;17.40;;;15.60;;
19671;SDS011;9983;51.114;13.788;2023-06-19T19:24:29;17.52;;;15.93;;
19671;SDS011;9983;51.114;13.788;2023-06-19T19:29:30;16.90;;;15.32;;
19671;SDS011;9983;51.114;13.788;2023-06-19T19:34:30;18.20;;;16.40;;
19671;SDS011;9983;51.114;13.788;2023-06-19T19:39:30;18.23;;;16.63;;
19671;SDS011;9983;51.114;13.788;2023-06-19T19:44:30;17.38;;;15.88;;
19671;SDS011;9983;51.114;13.788;2023-06-19T19:49:31;18.17;;;16.65;;
19671;SDS011;9983;51.114;13.788;2023-06-19T19:54:31;18.02;;;16.13;;
19671;SDS011;9983;51.114;13.788;2023-06-19T19:59:32;17.98;;;16.48;;
19671;SDS011;9983;51.114;13.788;2023-06-19T20:04:33;18.20;;;16.63;;
19671;SDS011;9983;51.114;13.788;2023-06-19T20:09:33;17.33;;;15.82;;
19671;SDS011;9983;51.114;13.788;2023-06-19T20:14:33;17.73;;;16.23;;
19671;SDS011;9983;51.114;13.788;2023-06-19T20:19:33;17.85;;;16.23;;
19671;SDS011;9983;51.114;13.788;2023-06-19T20:24:34;18.33;;;16.73;;
19671;SDS011;9983;51.114;13.788;2023-06-19T20:29:34;17.40;;;15.70;;
19671;SDS011;9983;51.114;13.788;2023-06-19T20:34:34;18.35;;;16.65;;
19671;SDS011;9983;51.114;13.788;2023-06-19T20:39:34;18.50;;;16.88;;
19671;SDS011;9983;51.114;13.788;2023-06-19T20:44:38;17.10;;;15.52;;
19671;SDS011;9983;51.114;13.788;2023-06-19T20:49:39;19.17;;;17.23;;
19671;SDS011;9983;51.114;13.788;2023-06-19T20:54:39;18.08;;;16.45;;
19671;SDS011;9983;51.114;13.788;2023-06-19T20:59:39;18.17;;;16.38;;
19671;SDS011;9983;51.114;13.788;2023-06-19T21:04:40;17.95;;;16.33;;
19671;SDS011;9983;51.114;13.788;2023-06-19T21:09:41;18.05;;;16.20;;
19671;SDS011;9983;51.114;13.788;2023-06-19T21:14:41;17.73;;;16.23;;
19671;SDS011;9983;51.114;13.788;2023-06-19T21:19:41;16.95;;;15.40;;
19671;SDS011;9983;51.114;13.788;2023-06-19T21:24:42;16.10;;;14.70;;
19671;SDS011;9983;51.114;13.788;2023-06-19T21:29:42;17.20;;;15.57;;
19671;SDS011;9983;51.114;13.788;2023-06-19T21:34:43;17.83;;;16.10;;
19671;SDS011;9983;51.114;13.788;2023-06-19T21:39:43;17.33;;;15.75;;
19671;SDS011;9983;51.114;13.788;2023-06-19T21:44:44;16.77;;;15.25;;
19671;SDS011;9983;51.114;13.788;2023-06-19T21:49:45;16.67;;;15.18;;
19671;SDS011;9983;51.114;13.788;2023-06-19T21:54:45;18.33;;;16.52;;
19671;SDS011;9983;51.114;13.788;2023-06-19T21:59:45;16.92;;;15.43;;
19671;SDS011;9983;51.114;13.788;2023-06-19T22:04:46;17.75;;;15.93;;
19671;SDS011;9983;51.114;13.788;2023-06-19T22:09:46;17.98;;;16.10;;
19671;SDS011;9983;51.114;13.788;2023-06-19T22:14:46;17.70;;;15.90;;
19671;SDS011;9983;51.114;13.788;2023-06-19T22:19:46;17.73;;;15.90;;
19671;SDS011;9983;51.114;13.788;2023-06-19T22:24:47;17.50;;;15.83;;
19671;SDS011;9983;51.114;13.788;2023-06-19T22:29:47;16.77;;;15.13;;
19671;SDS011;9983;51.114;13.788;2023-06-19T22:34:47;17.88;;;16.15;;
19671;SDS011;9983;51.114;13.788;2023-06-19T22:39:48;17.90;;;16.20;;
19671;SDS011;9983;51.114;13.788;2023-06-19T22:44:48;17.45;;;15.85;;
19671;SDS011;9983;51.114;13.788;2023-06-19T22:49:48;17.70;;;16.10;;
19671;SDS011;9983;51.114;13.788;2023-06-19T22:54:49;18.08;;;16.58;;
19671;SDS011;9983;51.114;13.788;2023-06-19T22:59:49;17.35;;;15.63;;
19671;SDS011;9983;51.114;13.788;2023-06-19T23:04:49;17.73;;;16.10;;
19671;SDS011;9983;51.114;13.788;2023-06-19T23:09:50;16.83;;;15.40;;
19671;SDS011;9983;51.114;13.788;2023-06-19T23:14:50;16.05;;;14.63;;
19671;SDS011;9983;51.114;13.788;2023-06-19T23:19:50;17.08;;;15.55;;
19671;SDS011;9983;51.114;13.788;2023-06-19T23:24:51;17.75;;;15.95;;
19671;SDS011;9983;51.114;13.788;2023-06-19T23:29:52;18.20;;;16.60;;
19671;SDS011;9983;51.114;13.788;2023-06-19T23:34:52;16.58;;;15.07;;
19671;SDS011;9983;51.114;13.788;2023-06-19T23:39:52;17.10;;;15.40;;
19671;SDS011;9983;51.114;13.788;2023-06-19T23:44:53;16.60;;;15.20;;
19671;SDS011;9983;51.114;13.788;2023-06-19T23:49:53;16.08;;;14.60;;
19671;SDS011;9983;51.114;13.788;2023-06-19T23:54:54;17.30;;;15.70;;
19671;SDS011;9983;51.114;13.788;2023-06-19T23:59:54;15.77;;;14.38;;
